Tune, Denmark
Current Conditions -  °F | °C
As of 10:50 AM on Monday 22 Dec 2014 (Local Time) from EKRK Reporting Station
Light Rain Light Rain  
Wind Chill:   Ceiling: 4900
Heat Index:   Visibility: 6mi
Dew Point:   Wind: 14mph
Humidity: 100%   Direction: 260°W
Pressure: 29.47"   Gusts: NA
Location:  55.6°N, 12.18°E
Report Text: EKRK 220950Z AUTO 26012KT 9999NDV -RA FEW039/// BKN049///09/09 Q0998
Loading
Personal Weather Stations






























Interactive Weather Map New forecast layout! Learn more

10-Day Weather Forecast

Advertisements
Track Severe Weather on mobile